createdAt,value
2017-06-20T00:00:34.572Z,9.20
2017-06-20T00:03:01.753Z,9.43
2017-06-20T00:05:28.143Z,9.90
2017-06-20T00:07:54.529Z,9.20
2017-06-20T00:10:20.912Z,9.40
2017-06-20T00:12:47.325Z,8.33
2017-06-20T00:15:14.450Z,8.33
2017-06-20T00:17:40.827Z,9.47
2017-06-20T00:20:07.202Z,8.60
2017-06-20T00:22:33.592Z,7.97
2017-06-20T00:24:59.962Z,8.90
2017-06-20T00:27:26.346Z,8.43
2017-06-20T00:29:52.727Z,9.67
2017-06-20T00:32:19.105Z,9.57
2017-06-20T00:34:45.487Z,9.60
2017-06-20T00:37:11.922Z,9.40
2017-06-20T00:39:38.306Z,8.93
2017-06-20T00:42:04.685Z,9.33
2017-06-20T00:44:31.057Z,9.37
2017-06-20T00:46:57.436Z,8.90
2017-06-20T00:49:23.822Z,9.60
2017-06-20T00:51:50.276Z,9.40
2017-06-20T00:54:16.665Z,9.27
2017-06-20T00:56:43.021Z,9.70
2017-06-20T00:59:10.153Z,9.20
2017-06-20T01:01:36.528Z,9.70
2017-06-20T01:04:02.955Z,10.33
2017-06-20T01:06:29.335Z,9.20
2017-06-20T01:08:55.718Z,9.37
2017-06-20T01:11:22.118Z,9.00
2017-06-20T01:13:48.483Z,10.73
2017-06-20T01:16:14.890Z,9.67
2017-06-20T01:18:41.251Z,10.00
2017-06-20T01:21:07.646Z,9.73
2017-06-20T01:23:34.043Z,10.57
2017-06-20T01:26:00.415Z,10.90
2017-06-20T01:28:26.811Z,10.03
2017-06-20T01:30:53.219Z,9.93
2017-06-20T01:33:19.631Z,9.90
2017-06-20T01:35:46.023Z,10.93
2017-06-20T01:38:12.445Z,10.57
2017-06-20T01:40:38.849Z,10.50
2017-06-20T01:43:05.252Z,10.80
2017-06-20T01:45:31.640Z,10.17
2017-06-20T01:47:58.051Z,11.70
2017-06-20T01:50:24.451Z,12.27
2017-06-20T01:52:50.868Z,11.70
2017-06-20T01:55:17.281Z,12.47
2017-06-20T01:57:44.450Z,12.30
2017-06-20T02:00:10.882Z,11.40
2017-06-20T02:02:37.293Z,11.37
2017-06-20T02:05:04.463Z,11.27
2017-06-20T02:07:30.863Z,12.27
2017-06-20T02:09:57.283Z,11.33
2017-06-20T02:12:23.677Z,11.23
2017-06-20T02:14:50.078Z,12.27
2017-06-20T02:17:17.227Z,10.97
2017-06-20T02:19:44.359Z,11.50
2017-06-20T02:22:10.729Z,11.70
2017-06-20T02:24:37.201Z,10.93
2017-06-20T02:27:03.577Z,11.57
2017-06-20T02:29:29.981Z,11.43
2017-06-20T02:31:56.407Z,10.40
2017-06-20T02:34:22.789Z,11.10
2017-06-20T02:36:49.170Z,10.87
2017-06-20T02:39:15.538Z,10.97
2017-06-20T02:41:42.725Z,12.00
2017-06-20T02:44:09.109Z,11.43
2017-06-20T02:46:35.510Z,11.80
2017-06-20T02:49:01.894Z,10.20
2017-06-20T02:51:28.271Z,10.77
2017-06-20T02:53:54.658Z,10.93
2017-06-20T02:56:21.048Z,11.03
2017-06-20T02:58:47.448Z,12.27
2017-06-20T03:01:13.830Z,12.03
2017-06-20T03:03:40.230Z,13.40
2017-06-20T03:06:06.611Z,12.77
2017-06-20T03:08:33.053Z,12.53
2017-06-20T03:11:11.871Z,11.33
2017-06-20T03:13:38.254Z,11.20
2017-06-20T03:16:04.643Z,12.30
2017-06-20T03:18:31.027Z,12.17
2017-06-20T03:20:57.414Z,10.73
2017-06-20T03:23:23.827Z,11.27
2017-06-20T03:25:50.254Z,11.07
2017-06-20T03:28:16.621Z,11.10
2017-06-20T03:30:42.984Z,11.53
2017-06-20T03:33:09.369Z,11.07
2017-06-20T03:35:35.773Z,11.77
2017-06-20T03:38:02.145Z,12.00
2017-06-20T03:40:28.557Z,11.03
2017-06-20T03:42:55.054Z,13.00
2017-06-20T03:45:21.407Z,13.40
2017-06-20T03:47:48.538Z,13.93
2017-06-20T03:50:14.922Z,14.67
2017-06-20T03:52:41.334Z,15.00
2017-06-20T03:55:07.752Z,16.90
2017-06-20T03:57:34.862Z,17.30
2017-06-20T04:00:01.254Z,17.00
2017-06-20T04:02:27.647Z,17.87
2017-06-20T04:04:54.037Z,16.60
2017-06-20T04:07:20.423Z,17.10
2017-06-20T04:09:47.576Z,18.67
2017-06-20T04:12:14.704Z,17.77
2017-06-20T04:14:41.127Z,17.73
2017-06-20T04:17:07.527Z,18.30
2017-06-20T04:19:33.926Z,18.17
2017-06-20T04:22:00.295Z,17.00
2017-06-20T04:24:26.677Z,18.93
2017-06-20T04:26:53.889Z,19.50
2017-06-20T04:29:20.267Z,18.20
2017-06-20T04:31:47.398Z,18.43
2017-06-20T04:34:14.526Z,18.33
2017-06-20T04:36:40.936Z,18.87
2017-06-20T04:39:07.318Z,19.50
2017-06-20T04:41:33.737Z,17.50
2017-06-20T04:44:00.130Z,18.17
2017-06-20T04:46:26.513Z,18.83
2017-06-20T04:48:53.670Z,20.00
2017-06-20T04:51:20.799Z,19.90
2017-06-20T04:53:47.209Z,18.77
2017-06-20T04:56:13.598Z,19.43
2017-06-20T04:58:40.035Z,18.83
2017-06-20T05:01:06.386Z,19.20
2017-06-20T05:03:32.805Z,19.53
2017-06-20T05:05:59.215Z,18.70
2017-06-20T05:08:26.323Z,19.00
2017-06-20T05:10:52.745Z,19.30
2017-06-20T05:13:19.183Z,18.00
2017-06-20T05:15:45.582Z,19.00
2017-06-20T05:18:11.972Z,18.33
2017-06-20T05:20:39.124Z,17.77
2017-06-20T05:23:05.531Z,19.43
2017-06-20T05:25:31.989Z,19.97
2017-06-20T05:27:59.142Z,19.43
2017-06-20T05:30:25.539Z,19.23
2017-06-20T05:32:51.951Z,18.10
2017-06-20T05:35:18.379Z,19.13
2017-06-20T05:37:44.804Z,18.70
2017-06-20T05:40:11.239Z,19.53
2017-06-20T05:42:37.634Z,19.17
2017-06-20T05:45:04.040Z,18.83
2017-06-20T05:47:30.456Z,18.80
2017-06-20T05:49:56.870Z,19.00
2017-06-20T05:52:23.290Z,19.57
2017-06-20T05:54:49.699Z,19.27
2017-06-20T05:57:16.094Z,18.03
2017-06-20T05:59:42.518Z,18.27
2017-06-20T06:02:08.934Z,19.23
2017-06-20T06:04:35.392Z,19.57
2017-06-20T06:07:01.786Z,19.47
2017-06-20T06:09:28.363Z,18.40
2017-06-20T06:11:54.758Z,17.77
2017-06-20T06:14:21.154Z,18.37
2017-06-20T06:16:48.323Z,19.37
2017-06-20T06:19:15.431Z,17.10
2017-06-20T06:21:41.882Z,16.70
2017-06-20T06:24:10.039Z,14.90
2017-06-20T06:26:36.458Z,11.63
2017-06-20T06:29:02.879Z,13.10
2017-06-20T06:31:29.258Z,13.00
2017-06-20T06:33:56.440Z,11.93
2017-06-20T06:36:22.817Z,11.87
2017-06-20T06:38:49.205Z,9.10
2017-06-20T06:41:15.591Z,9.93
2017-06-20T06:43:41.989Z,10.23
2017-06-20T06:46:08.404Z,11.37
2017-06-20T06:48:34.824Z,10.93
2017-06-20T06:51:01.226Z,11.17
2017-06-20T06:53:29.426Z,8.20
2017-06-20T06:55:56.556Z,8.93
2017-06-20T06:58:22.975Z,9.57
2017-06-20T07:00:49.344Z,9.97
2017-06-20T07:03:15.743Z,9.80
2017-06-20T07:05:42.147Z,9.80
2017-06-20T07:08:08.534Z,8.90
2017-06-20T07:10:35.697Z,10.60
2017-06-20T07:13:02.106Z,8.83
2017-06-20T07:15:29.278Z,8.33
2017-06-20T07:17:55.733Z,8.50
2017-06-20T07:20:30.164Z,8.17
2017-06-20T07:22:56.635Z,8.90
2017-06-20T07:25:23.137Z,7.30
2017-06-20T07:27:49.547Z,8.63
2017-06-20T07:30:15.940Z,8.47
2017-06-20T07:32:42.426Z,8.60
2017-06-20T07:35:08.824Z,8.57
2017-06-20T07:37:35.239Z,8.37
2017-06-20T07:40:01.653Z,9.37
2017-06-20T07:42:28.046Z,6.73
2017-06-20T07:44:54.597Z,8.50
2017-06-20T07:47:21.119Z,8.47
2017-06-20T07:49:47.553Z,6.20
2017-06-20T07:52:14.037Z,7.00
2017-06-20T07:54:40.506Z,5.40
2017-06-20T07:57:06.963Z,5.80
2017-06-20T07:59:33.379Z,5.53
2017-06-20T08:01:59.838Z,7.30
2017-06-20T08:04:26.293Z,5.50
2017-06-20T08:06:53.464Z,6.00
2017-06-20T08:09:19.919Z,5.30
2017-06-20T08:11:46.690Z,5.93
2017-06-20T08:14:13.096Z,6.57
2017-06-20T08:16:39.542Z,5.10
2017-06-20T08:19:06.206Z,5.83
2017-06-20T08:21:54.334Z,4.97
2017-06-20T08:24:20.776Z,6.17
2017-06-20T08:26:47.201Z,5.90
2017-06-20T08:29:13.611Z,6.57
2017-06-20T08:31:40.031Z,7.77
2017-06-20T08:34:06.488Z,5.97
2017-06-20T08:36:32.902Z,6.67
2017-06-20T08:38:59.369Z,6.67
2017-06-20T08:41:25.810Z,7.67
2017-06-20T08:43:52.275Z,7.63
2017-06-20T08:46:18.740Z,6.63
2017-06-20T08:48:45.853Z,9.03
2017-06-20T08:51:12.342Z,11.43
2017-06-20T08:53:38.785Z,8.70
2017-06-20T08:56:05.284Z,9.60
2017-06-20T08:58:31.696Z,8.43
2017-06-20T09:00:58.132Z,8.30
2017-06-20T09:03:24.555Z,9.17
2017-06-20T09:05:50.962Z,9.57
2017-06-20T09:08:17.360Z,11.70
2017-06-20T09:10:43.750Z,9.10
2017-06-20T09:13:10.163Z,9.30
2017-06-20T09:15:37.289Z,12.40
2017-06-20T09:18:03.695Z,10.73
2017-06-20T09:20:30.095Z,9.27
2017-06-20T09:22:57.252Z,10.00
2017-06-20T09:25:23.766Z,10.40
2017-06-20T09:27:51.003Z,9.67
2017-06-20T09:30:17.426Z,9.47
2017-06-20T09:32:43.839Z,9.10
2017-06-20T09:35:10.257Z,9.60
2017-06-20T09:37:36.693Z,8.30
2017-06-20T09:40:03.174Z,10.67
2017-06-20T09:42:29.691Z,9.80
2017-06-20T09:44:56.146Z,9.47
2017-06-20T09:47:23.315Z,8.20
2017-06-20T09:49:49.829Z,8.50
2017-06-20T09:52:16.256Z,9.67
2017-06-20T09:54:42.731Z,8.50
2017-06-20T09:57:09.125Z,8.07
2017-06-20T09:59:35.530Z,7.53
2017-06-20T10:02:01.937Z,7.87
2017-06-20T10:04:28.353Z,7.33
2017-06-20T10:06:54.802Z,6.63
2017-06-20T10:09:21.200Z,6.83
2017-06-20T10:11:47.655Z,7.37
2017-06-20T10:14:14.058Z,10.70
2017-06-20T10:16:41.218Z,7.43
2017-06-20T10:19:08.433Z,6.67
2017-06-20T10:21:35.636Z,6.10
2017-06-20T10:24:02.119Z,5.83
2017-06-20T10:26:28.576Z,6.23
2017-06-20T10:28:55.414Z,5.60
2017-06-20T10:31:21.840Z,5.07
2017-06-20T10:33:48.621Z,5.33
2017-06-20T10:36:15.070Z,5.67
2017-06-20T10:38:41.518Z,5.20
2017-06-20T10:41:07.987Z,5.00
2017-06-20T10:43:34.430Z,5.03
2017-06-20T10:46:01.052Z,5.40
2017-06-20T10:48:27.514Z,4.90
2017-06-20T10:50:53.919Z,4.77
2017-06-20T10:53:20.320Z,5.50
2017-06-20T10:55:46.771Z,6.23
2017-06-20T10:58:13.174Z,4.87
2017-06-20T11:00:39.652Z,4.90
2017-06-20T11:03:06.122Z,4.73
2017-06-20T11:05:32.579Z,4.57
2017-06-20T11:07:59.158Z,4.07
2017-06-20T11:10:25.602Z,4.83
2017-06-20T11:12:52.766Z,4.50
2017-06-20T11:15:19.200Z,5.07
2017-06-20T11:17:45.671Z,4.73
2017-06-20T11:20:12.127Z,3.90
2017-06-20T11:22:39.472Z,3.40
2017-06-20T11:25:05.866Z,3.50
2017-06-20T11:27:32.283Z,4.47
2017-06-20T11:29:59.620Z,3.30
2017-06-20T11:32:26.046Z,3.90
2017-06-20T11:34:52.467Z,3.57
2017-06-20T11:37:18.877Z,3.20
2017-06-20T11:39:45.335Z,3.53
2017-06-20T11:42:12.021Z,3.80
2017-06-20T11:44:38.491Z,4.10
2017-06-20T11:47:04.893Z,3.10
2017-06-20T11:49:31.362Z,2.93
2017-06-20T11:51:57.759Z,3.50
2017-06-20T11:54:24.149Z,3.40
2017-06-20T11:56:50.681Z,3.50
2017-06-20T11:59:17.093Z,2.63
2017-06-20T12:01:43.496Z,4.03
2017-06-20T12:04:09.982Z,3.07
2017-06-20T12:06:36.415Z,3.17
2017-06-20T12:09:03.611Z,3.00
2017-06-20T12:11:30.167Z,4.13
2017-06-20T12:13:56.625Z,3.33
2017-06-20T12:16:23.555Z,3.10
2017-06-20T12:18:49.985Z,3.30
2017-06-20T12:21:16.386Z,3.73
2017-06-20T12:23:42.803Z,3.77
2017-06-20T12:26:09.213Z,3.63
2017-06-20T12:28:36.445Z,2.90
2017-06-20T12:31:02.925Z,3.10
2017-06-20T12:33:29.528Z,3.60
2017-06-20T12:35:56.280Z,3.80
2017-06-20T12:38:22.766Z,2.30
2017-06-20T12:40:49.255Z,1.80
2017-06-20T12:43:15.888Z,2.40
2017-06-20T12:45:42.354Z,2.20
2017-06-20T12:48:08.743Z,2.73
2017-06-20T12:50:35.235Z,2.40
2017-06-20T12:53:01.666Z,2.30
2017-06-20T12:55:28.072Z,3.77
2017-06-20T12:57:54.535Z,3.73
2017-06-20T13:00:20.920Z,1.83
2017-06-20T13:02:47.323Z,2.30
2017-06-20T13:05:13.723Z,1.57
2017-06-20T13:07:40.203Z,1.70
2017-06-20T13:10:06.586Z,2.00
2017-06-20T13:12:32.979Z,1.77
2017-06-20T13:14:59.395Z,2.00
2017-06-20T13:17:26.529Z,1.70
2017-06-20T13:19:52.927Z,1.50
2017-06-20T13:22:19.319Z,1.40
2017-06-20T13:24:45.762Z,2.07
2017-06-20T13:27:12.159Z,3.77
2017-06-20T13:29:38.648Z,3.13
2017-06-20T13:32:05.263Z,4.47
2017-06-20T13:34:31.836Z,5.13
2017-06-20T13:36:58.325Z,1.57
2017-06-20T13:39:24.898Z,1.53
2017-06-20T13:41:51.364Z,1.97
2017-06-20T13:44:17.762Z,3.17
2017-06-20T13:46:44.195Z,1.63
2017-06-20T13:49:10.586Z,2.90
2017-06-20T13:51:37.231Z,1.57
2017-06-20T13:54:04.422Z,3.47
2017-06-20T13:56:32.339Z,2.00
2017-06-20T13:58:58.766Z,3.17
2017-06-20T14:01:25.200Z,2.60
2017-06-20T14:03:51.608Z,2.03
2017-06-20T14:06:18.007Z,4.43
2017-06-20T14:08:44.415Z,2.17
2017-06-20T14:11:10.845Z,1.97
2017-06-20T14:13:38.021Z,2.20
2017-06-20T14:16:04.411Z,2.50
2017-06-20T14:18:30.828Z,2.10
2017-06-20T14:20:57.257Z,2.47
2017-06-20T14:23:23.655Z,1.70
2017-06-20T14:25:50.058Z,1.80
2017-06-20T14:28:16.454Z,2.53
2017-06-20T14:30:42.864Z,1.50
2017-06-20T14:33:09.306Z,2.93
2017-06-20T14:35:35.843Z,3.13
2017-06-20T14:38:02.259Z,3.00
2017-06-20T14:40:28.693Z,2.23
2017-06-20T14:42:55.083Z,2.50
2017-06-20T14:45:21.490Z,2.77
2017-06-20T14:47:47.909Z,2.13
2017-06-20T14:50:14.332Z,2.33
2017-06-20T14:52:40.771Z,1.40
2017-06-20T14:55:07.212Z,4.17
2017-06-20T14:57:33.614Z,2.80
2017-06-20T15:00:00.011Z,3.00
2017-06-20T15:02:27.182Z,3.07
2017-06-20T15:04:54.885Z,4.50
2017-06-20T15:07:21.263Z,1.90
2017-06-20T15:09:48.406Z,2.20
2017-06-20T15:12:14.828Z,1.67
2017-06-20T15:14:41.229Z,2.67
2017-06-20T15:17:07.625Z,2.50
2017-06-20T15:19:34.088Z,2.20
2017-06-20T15:22:00.495Z,2.23
2017-06-20T15:24:26.907Z,2.20
2017-06-20T15:26:53.320Z,2.90
2017-06-20T15:29:19.751Z,1.73
2017-06-20T15:31:46.179Z,3.40
2017-06-20T15:34:12.557Z,2.40
2017-06-20T15:36:39.047Z,3.67
2017-06-20T15:39:06.197Z,1.87
2017-06-20T15:41:32.657Z,2.77
2017-06-20T15:43:59.072Z,1.90
2017-06-20T15:46:26.199Z,2.30
2017-06-20T15:48:52.620Z,2.87
2017-06-20T15:51:19.003Z,1.80
2017-06-20T15:53:45.390Z,3.57
2017-06-20T15:56:11.798Z,2.03
2017-06-20T15:58:38.229Z,3.97
2017-06-20T16:01:04.648Z,3.20
2017-06-20T16:03:31.071Z,1.70
2017-06-20T16:05:57.435Z,2.40
2017-06-20T16:08:23.858Z,3.13
2017-06-20T16:10:50.230Z,3.20
2017-06-20T16:13:17.390Z,2.80
2017-06-20T16:15:44.551Z,4.07
2017-06-20T16:18:11.673Z,4.13
2017-06-20T16:20:38.076Z,1.73
2017-06-20T16:23:04.653Z,1.80
2017-06-20T16:25:31.811Z,2.00
2017-06-20T16:27:58.943Z,2.77
2017-06-20T16:30:25.371Z,3.70
2017-06-20T16:32:51.757Z,2.50
2017-06-20T16:35:18.179Z,4.23
2017-06-20T16:37:44.902Z,3.73
2017-06-20T16:40:11.311Z,2.30
2017-06-20T16:42:37.749Z,4.90
2017-06-20T16:45:04.881Z,2.77
2017-06-20T16:47:31.302Z,2.40
2017-06-20T16:49:57.699Z,2.20
2017-06-20T16:52:24.120Z,2.40
2017-06-20T16:54:50.514Z,3.30
2017-06-20T16:57:16.933Z,2.90
2017-06-20T16:59:43.324Z,2.90
2017-06-20T17:02:10.432Z,2.87
2017-06-20T17:04:36.938Z,2.20
2017-06-20T17:07:03.350Z,3.07
2017-06-20T17:09:29.782Z,2.20
2017-06-20T17:11:56.201Z,4.13
2017-06-20T17:14:22.602Z,4.10
2017-06-20T17:16:49.007Z,2.90
2017-06-20T17:19:15.449Z,2.37
2017-06-20T17:21:42.467Z,2.80
2017-06-20T17:24:08.873Z,1.90
2017-06-20T17:26:35.298Z,2.50
2017-06-20T17:29:02.423Z,4.20
2017-06-20T17:31:28.836Z,4.03
2017-06-20T17:33:55.213Z,4.57
2017-06-20T17:36:22.357Z,2.57
2017-06-20T17:38:49.493Z,1.27
2017-06-20T17:41:16.647Z,1.90
2017-06-20T17:43:43.077Z,2.70
2017-06-20T17:46:09.493Z,2.70
2017-06-20T17:48:35.900Z,2.70
2017-06-20T17:51:02.274Z,3.60
2017-06-20T17:53:29.414Z,2.47
2017-06-20T17:55:55.803Z,3.00
2017-06-20T17:58:22.338Z,2.77
2017-06-20T18:00:48.706Z,2.50
2017-06-20T18:03:15.249Z,2.13
2017-06-20T18:05:41.636Z,3.40
2017-06-20T18:08:08.072Z,3.40
2017-06-20T18:10:34.466Z,2.07
2017-06-20T18:13:00.894Z,2.83
2017-06-20T18:15:28.026Z,2.00
2017-06-20T18:17:54.424Z,1.90
2017-06-20T18:20:20.872Z,4.93
2017-06-20T18:22:47.266Z,2.77
2017-06-20T18:25:13.699Z,3.47
2017-06-20T18:27:40.193Z,2.90
2017-06-20T18:30:07.339Z,3.10
2017-06-20T18:32:34.496Z,3.80
2017-06-20T18:35:01.642Z,2.70
2017-06-20T18:37:28.896Z,4.00
2017-06-20T18:39:56.162Z,3.53
2017-06-20T18:42:23.308Z,4.10
2017-06-20T18:44:49.682Z,3.60
2017-06-20T18:47:16.091Z,4.20
2017-06-20T18:49:42.487Z,3.93
2017-06-20T18:52:08.879Z,3.20
2017-06-20T18:54:35.286Z,3.27
2017-06-20T18:57:02.056Z,5.13
2017-06-20T18:59:28.458Z,2.87
2017-06-20T19:01:54.839Z,3.93
2017-06-20T19:04:21.207Z,3.77
2017-06-20T19:06:48.339Z,3.73
2017-06-20T19:09:14.743Z,7.43
2017-06-20T19:11:41.300Z,3.70
2017-06-20T19:14:07.727Z,6.63
2017-06-20T19:16:34.127Z,3.47
2017-06-20T19:19:00.550Z,3.03
2017-06-20T19:21:26.979Z,4.90
2017-06-20T19:23:53.413Z,4.33
2017-06-20T19:26:19.823Z,5.00
2017-06-20T19:28:46.333Z,4.97
2017-06-20T19:31:13.015Z,5.37
2017-06-20T19:33:39.424Z,4.03
2017-06-20T19:36:05.813Z,4.93
2017-06-20T19:38:32.445Z,5.87
2017-06-20T19:40:58.905Z,5.60
2017-06-20T19:43:25.327Z,5.37
2017-06-20T19:45:51.715Z,3.03
2017-06-20T19:48:18.126Z,3.90
2017-06-20T19:50:45.259Z,4.23
2017-06-20T19:53:11.612Z,4.97
2017-06-20T19:55:38.078Z,3.53
2017-06-20T19:58:04.468Z,5.57
2017-06-20T20:00:30.874Z,3.00
2017-06-20T20:02:58.863Z,7.00
2017-06-20T20:05:25.262Z,4.60
2017-06-20T20:07:51.675Z,5.20
2017-06-20T20:10:18.150Z,5.90
2017-06-20T20:12:44.615Z,4.03
2017-06-20T20:15:11.004Z,4.80
2017-06-20T20:17:37.387Z,3.10
2017-06-20T20:20:03.930Z,3.43
2017-06-20T20:22:30.316Z,5.37
2017-06-20T20:24:56.684Z,4.83
2017-06-20T20:27:23.099Z,2.97
2017-06-20T20:29:50.248Z,3.00
2017-06-20T20:32:17.377Z,5.00
2017-06-20T20:34:43.750Z,5.63
2017-06-20T20:37:10.146Z,4.40
2017-06-20T20:39:36.547Z,4.40
2017-06-20T20:42:02.950Z,4.63
2017-06-20T20:44:29.316Z,3.10
2017-06-20T20:46:55.868Z,4.73
2017-06-20T20:49:22.251Z,4.13
2017-06-20T20:51:48.631Z,5.03
2017-06-20T20:54:16.716Z,5.10
2017-06-20T20:56:43.074Z,6.97
2017-06-20T20:59:09.570Z,4.70
2017-06-20T21:01:36.720Z,3.63
2017-06-20T21:04:03.610Z,4.40
2017-06-20T21:06:30.035Z,3.00
2017-06-20T21:08:56.476Z,4.20
2017-06-20T21:11:22.894Z,5.60
2017-06-20T21:13:49.290Z,4.93
2017-06-20T21:16:15.672Z,4.40
2017-06-20T21:18:42.037Z,5.27
2017-06-20T21:21:08.435Z,4.40
2017-06-20T21:23:34.804Z,6.90
2017-06-20T21:26:01.154Z,3.73
2017-06-20T21:28:27.797Z,4.17
2017-06-20T21:30:55.075Z,5.07
2017-06-20T21:33:21.447Z,4.80
2017-06-20T21:35:47.835Z,5.60
2017-06-20T21:38:14.222Z,4.93
2017-06-20T21:40:41.335Z,3.20
2017-06-20T21:43:07.710Z,4.40
2017-06-20T21:45:34.150Z,5.30
2017-06-20T21:48:01.281Z,3.40
2017-06-20T21:50:27.658Z,4.70
2017-06-20T21:52:54.770Z,3.90
2017-06-20T21:55:21.138Z,6.40
2017-06-20T21:57:47.542Z,3.27
2017-06-20T22:00:13.894Z,5.30
2017-06-20T22:02:40.288Z,5.10
2017-06-20T22:05:06.681Z,5.80
2017-06-20T22:07:33.042Z,5.20
2017-06-20T22:09:59.422Z,5.77
2017-06-20T22:12:26.521Z,7.63
2017-06-20T22:14:52.911Z,6.10
2017-06-20T22:17:20.007Z,3.03
2017-06-20T22:19:46.382Z,3.77
2017-06-20T22:22:13.485Z,3.63
2017-06-20T22:24:39.882Z,3.40
2017-06-20T22:27:06.251Z,4.83
2017-06-20T22:29:32.617Z,4.30
2017-06-20T22:31:58.992Z,4.50
2017-06-20T22:34:25.341Z,5.20
2017-06-20T22:36:51.729Z,4.70
2017-06-20T22:39:18.091Z,7.00
2017-06-20T22:41:44.462Z,6.00
2017-06-20T22:44:11.581Z,3.53
2017-06-20T22:46:37.978Z,6.27
2017-06-20T22:49:04.344Z,3.03
2017-06-20T22:51:30.706Z,5.00
2017-06-20T22:53:57.074Z,4.63
2017-06-20T22:56:23.439Z,3.23
2017-06-20T22:58:49.808Z,6.30
2017-06-20T23:01:16.921Z,4.00
2017-06-20T23:03:43.301Z,5.70
2017-06-20T23:06:10.414Z,2.50
2017-06-20T23:08:36.795Z,5.40
2017-06-20T23:11:03.238Z,3.93
2017-06-20T23:13:29.619Z,3.17
2017-06-20T23:15:55.991Z,3.43
2017-06-20T23:18:22.358Z,3.47
2017-06-20T23:20:48.739Z,5.13
2017-06-20T23:23:15.133Z,5.00
2017-06-20T23:25:41.517Z,4.40
2017-06-20T23:28:07.898Z,6.00
2017-06-20T23:30:35.254Z,6.00
2017-06-20T23:33:01.624Z,4.37
2017-06-20T23:35:28.855Z,5.37
2017-06-20T23:37:55.230Z,5.17
2017-06-20T23:40:22.610Z,3.87
2017-06-20T23:42:48.986Z,4.07
2017-06-20T23:45:15.369Z,5.87
2017-06-20T23:47:41.746Z,6.67
2017-06-20T23:50:08.852Z,4.67
2017-06-20T23:52:35.201Z,4.90
2017-06-20T23:55:01.575Z,4.40
2017-06-20T23:57:27.942Z,4.50
2017-06-20T23:59:54.317Z,5.50
